Coleman A. Young Municipal Airport Detroit US
ICAO: KDET
IATA: DET
Category: Medium
Scheduled Services: No

Elevation: 626 ft
TransAlt. 18000 ft.

Airport Communications:
APP/DEP:126.85
ATIS:124.875
GND:121.85
LANSING RDO:122.2
TWR:121.3
UNICOM:122.95

KDET Zoom In..

If Map Doesn't Load, Click Here

Runways:

(A) RW 07 length 3714 ft width 100 ft
---- / hdg 68

(B) RW 15 length 5090 ft width 100 ft
ILS 111.30 / hdg 148

(C) RW 25 length 3714 ft width 100 ft
---- / hdg 248

(D) RW 33 length 5090 ft width 100 ft
ILS 111.30 / hdg 328

Location; KDET
Day. 23 / Time. 07.53 Zulu
* Altimeter: 30.22
* Temperature: 09° c. 48.2°f.
* Wind from: 000° Speed 00 kn.
Dewpoint: 07° c.
Visibility: 8 Statute Miles.
Clouds: Clear (automated report).

KDET 230753Z 00000KT 8SM CLR 09/07 A3022 RMK AO2 SLP235 T00890072


Wind - Calm.

 
 
jpsmedia.com for Web Design worldairports.se 2018   terms of use